createdAt,value
2022-12-27T05:04:43.609Z,97288.34
2022-12-27T05:14:41.440Z,97304.56
2022-12-27T05:24:57.953Z,97302.94
2022-12-27T05:34:58.198Z,97322.94
2022-12-27T05:44:59.928Z,97323.75
2022-12-27T05:54:57.823Z,97340.28
2022-12-27T06:04:57.045Z,97344.06
2022-12-27T06:14:55.634Z,97342.13
2022-12-27T06:24:54.876Z,97350.06
2022-12-27T06:34:52.738Z,97346.00
2022-12-27T06:44:51.967Z,97362.78
2022-12-27T06:54:49.831Z,97361.16
2022-12-27T07:04:49.027Z,97367.66
2022-12-27T07:14:46.927Z,97385.53
2022-12-27T07:24:48.731Z,97391.25
2022-12-27T07:34:46.604Z,97399.38
2022-12-27T07:44:45.827Z,97399.38
2022-12-27T07:54:43.773Z,97400.72
2022-12-27T08:04:43.655Z,97406.63
2022-12-27T08:14:41.644Z,97403.38
2022-12-27T08:24:41.675Z,97396.88
2022-12-27T08:34:39.697Z,97396.66
2022-12-27T08:44:39.003Z,97402.34
2022-12-27T08:54:39.139Z,97411.00
2022-12-27T09:04:38.435Z,97405.03
2022-12-27T09:14:36.363Z,97411.81
2022-12-27T09:24:35.642Z,97430.22
2022-12-27T15:16:15.259Z,97352.50
2022-12-27T15:26:23.369Z,97336.00
2022-12-27T15:36:40.191Z,97319.47
2022-12-27T15:47:05.481Z,97316.22
2022-12-27T15:57:24.528Z,97305.66
2022-12-27T16:27:36.745Z,97315.69
2022-12-27T16:37:44.777Z,97324.06
2022-12-27T16:48:07.954Z,97321.63
2022-12-27T16:58:34.482Z,97313.50
2022-12-27T17:08:33.805Z,97308.91
2022-12-27T17:18:35.320Z,97304.28
2022-12-27T17:28:42.045Z,97282.94
2022-12-27T17:38:52.198Z,97278.03
2022-12-27T17:48:54.762Z,97246.28
2022-12-27T17:58:58.105Z,97264.66
2022-12-27T18:08:59.195Z,97257.09
2022-12-27T18:18:59.932Z,97248.69
2022-12-27T18:28:59.255Z,97247.63
2022-12-27T18:39:00.044Z,97229.47
2022-12-27T18:48:59.711Z,97218.41
2022-12-27T18:59:03.008Z,97209.72
2022-12-27T19:09:02.301Z,97194.28
2022-12-27T19:19:10.414Z,97205.69
2022-12-27T19:29:17.099Z,97191.59
2022-12-27T19:39:21.103Z,97187.78
2022-12-27T19:49:41.661Z,97174.78
2022-12-27T19:59:38.235Z,97166.88
2022-12-27T20:09:37.486Z,97154.44
2022-12-27T20:19:35.919Z,97150.13
2022-12-27T20:29:35.475Z,97146.38
2022-12-27T20:39:35.887Z,97135.03
2022-12-27T20:49:35.170Z,97128.78
2022-12-27T20:59:33.102Z,97110.66
2022-12-27T21:09:33.961Z,97109.63
2022-12-27T21:19:32.199Z,97113.94
2022-12-27T21:29:34.458Z,97122.63
2022-12-27T21:39:33.507Z,97118.28
2022-12-27T21:49:32.784Z,97119.41
2022-12-27T21:59:30.698Z,97119.66
